sensor_id;sensor_type;location;lat;lon;timestamp;P1;durP1;ratioP1;P2;durP2;ratioP2
13197;SDS011;6664;52.514;13.440;2023-05-10T00:01:32;4.00;;;3.70;;
13197;SDS011;6664;52.514;13.440;2023-05-10T00:04:17;7.27;;;3.40;;
13197;SDS011;6664;52.514;13.440;2023-05-10T00:07:03;4.67;;;3.47;;
13197;SDS011;6664;52.514;13.440;2023-05-10T00:09:49;6.80;;;3.47;;
13197;SDS011;6664;52.514;13.440;2023-05-10T00:12:36;4.10;;;3.50;;
13197;SDS011;6664;52.514;13.440;2023-05-10T00:15:25;4.60;;;3.53;;
13197;SDS011;6664;52.514;13.440;2023-05-10T00:18:11;3.70;;;3.40;;
13197;SDS011;6664;52.514;13.440;2023-05-10T00:20:56;3.77;;;3.47;;
13197;SDS011;6664;52.514;13.440;2023-05-10T00:23:44;3.60;;;3.30;;
13197;SDS011;6664;52.514;13.440;2023-05-10T00:26:30;4.43;;;3.30;;
13197;SDS011;6664;52.514;13.440;2023-05-10T00:29:17;6.00;;;3.37;;
13197;SDS011;6664;52.514;13.440;2023-05-10T00:32:02;4.00;;;3.50;;
13197;SDS011;6664;52.514;13.440;2023-05-10T00:34:48;4.40;;;3.63;;
13197;SDS011;6664;52.514;13.440;2023-05-10T00:37:36;4.87;;;3.70;;
13197;SDS011;6664;52.514;13.440;2023-05-10T00:40:22;4.50;;;4.10;;
13197;SDS011;6664;52.514;13.440;2023-05-10T00:43:07;4.40;;;3.67;;
13197;SDS011;6664;52.514;13.440;2023-05-10T00:45:55;3.70;;;3.40;;
13197;SDS011;6664;52.514;13.440;2023-05-10T00:48:40;4.40;;;3.77;;
13197;SDS011;6664;52.514;13.440;2023-05-10T00:51:26;3.70;;;3.20;;
13197;SDS011;6664;52.514;13.440;2023-05-10T00:54:14;3.37;;;3.13;;
13197;SDS011;6664;52.514;13.440;2023-05-10T00:57:00;4.60;;;3.60;;
13197;SDS011;6664;52.514;13.440;2023-05-10T00:59:48;6.23;;;4.00;;
13197;SDS011;6664;52.514;13.440;2023-05-10T01:02:34;4.80;;;3.57;;
13197;SDS011;6664;52.514;13.440;2023-05-10T01:05:20;3.50;;;3.00;;
13197;SDS011;6664;52.514;13.440;2023-05-10T01:08:08;3.17;;;2.93;;
13197;SDS011;6664;52.514;13.440;2023-05-10T01:10:53;4.50;;;3.50;;
13197;SDS011;6664;52.514;13.440;2023-05-10T01:13:41;3.70;;;3.13;;
13197;SDS011;6664;52.514;13.440;2023-05-10T01:16:27;4.20;;;3.60;;
13197;SDS011;6664;52.514;13.440;2023-05-10T01:19:23;3.83;;;3.43;;
13197;SDS011;6664;52.514;13.440;2023-05-10T01:28:58;8.10;;;3.60;;
13197;SDS011;6664;52.514;13.440;2023-05-10T01:37:45;4.17;;;3.23;;
13197;SDS011;6664;52.514;13.440;2023-05-10T01:41:03;3.83;;;3.47;;
13197;SDS011;6664;52.514;13.440;2023-05-10T01:44:02;3.63;;;3.33;;
13197;SDS011;6664;52.514;13.440;2023-05-10T01:47:10;4.30;;;3.73;;
13197;SDS011;6664;52.514;13.440;2023-05-10T01:50:03;4.00;;;3.40;;
13197;SDS011;6664;52.514;13.440;2023-05-10T01:52:53;3.70;;;3.40;;
13197;SDS011;6664;52.514;13.440;2023-05-10T01:55:45;3.87;;;3.50;;
13197;SDS011;6664;52.514;13.440;2023-05-10T01:58:33;3.90;;;3.10;;
13197;SDS011;6664;52.514;13.440;2023-05-10T02:01:25;3.93;;;3.53;;
13197;SDS011;6664;52.514;13.440;2023-05-10T02:04:17;3.90;;;3.53;;
13197;SDS011;6664;52.514;13.440;2023-05-10T02:07:03;4.10;;;3.40;;
13197;SDS011;6664;52.514;13.440;2023-05-10T02:09:51;3.80;;;3.40;;
13197;SDS011;6664;52.514;13.440;2023-05-10T02:12:44;3.70;;;3.30;;
13197;SDS011;6664;52.514;13.440;2023-05-10T02:15:35;4.60;;;2.80;;
13197;SDS011;6664;52.514;13.440;2023-05-10T02:18:24;4.20;;;3.47;;
13197;SDS011;6664;52.514;13.440;2023-05-10T02:21:11;3.80;;;3.40;;
13197;SDS011;6664;52.514;13.440;2023-05-10T02:23:59;3.30;;;3.00;;
13197;SDS011;6664;52.514;13.440;2023-05-10T02:26:47;6.73;;;3.63;;
13197;SDS011;6664;52.514;13.440;2023-05-10T02:29:34;3.30;;;3.00;;
13197;SDS011;6664;52.514;13.440;2023-05-10T02:32:21;3.93;;;3.57;;
13197;SDS011;6664;52.514;13.440;2023-05-10T02:35:09;3.30;;;3.10;;
13197;SDS011;6664;52.514;13.440;2023-05-10T02:37:56;3.77;;;3.33;;
13197;SDS011;6664;52.514;13.440;2023-05-10T02:40:45;3.77;;;3.10;;
13197;SDS011;6664;52.514;13.440;2023-05-10T02:43:35;3.60;;;3.27;;
13197;SDS011;6664;52.514;13.440;2023-05-10T02:46:23;9.17;;;4.00;;
13197;SDS011;6664;52.514;13.440;2023-05-10T02:49:09;3.70;;;3.40;;
13197;SDS011;6664;52.514;13.440;2023-05-10T02:51:58;4.10;;;3.13;;
13197;SDS011;6664;52.514;13.440;2023-05-10T02:54:49;4.13;;;3.73;;
13197;SDS011;6664;52.514;13.440;2023-05-10T02:57:38;3.53;;;3.33;;
13197;SDS011;6664;52.514;13.440;2023-05-10T03:00:27;3.73;;;3.43;;
13197;SDS011;6664;52.514;13.440;2023-05-10T03:03:12;5.30;;;2.60;;
13197;SDS011;6664;52.514;13.440;2023-05-10T03:06:00;2.93;;;2.63;;
13197;SDS011;6664;52.514;13.440;2023-05-10T03:08:45;3.83;;;3.17;;
13197;SDS011;6664;52.514;13.440;2023-05-10T03:11:50;3.40;;;3.10;;
13197;SDS011;6664;52.514;13.440;2023-05-10T03:20:48;4.47;;;3.17;;
13197;SDS011;6664;52.514;13.440;2023-05-10T03:23:54;3.33;;;3.10;;
13197;SDS011;6664;52.514;13.440;2023-05-10T03:26:52;8.37;;;3.07;;
13197;SDS011;6664;52.514;13.440;2023-05-10T03:29:42;3.43;;;3.17;;
13197;SDS011;6664;52.514;13.440;2023-05-10T03:32:29;4.80;;;3.40;;
13197;SDS011;6664;52.514;13.440;2023-05-10T03:35:16;3.23;;;3.03;;
13197;SDS011;6664;52.514;13.440;2023-05-10T03:38:02;4.97;;;3.33;;
13197;SDS011;6664;52.514;13.440;2023-05-10T03:40:48;3.20;;;2.90;;
13197;SDS011;6664;52.514;13.440;2023-05-10T03:43:33;5.60;;;3.13;;
13197;SDS011;6664;52.514;13.440;2023-05-10T03:46:19;3.60;;;3.30;;
13197;SDS011;6664;52.514;13.440;2023-05-10T03:49:04;3.60;;;3.10;;
13197;SDS011;6664;52.514;13.440;2023-05-10T03:51:50;4.40;;;2.93;;
13197;SDS011;6664;52.514;13.440;2023-05-10T03:54:35;5.10;;;2.87;;
13197;SDS011;6664;52.514;13.440;2023-05-10T03:57:21;8.10;;;3.37;;
13197;SDS011;6664;52.514;13.440;2023-05-10T04:00:06;3.90;;;3.50;;
13197;SDS011;6664;52.514;13.440;2023-05-10T04:02:52;3.10;;;2.80;;
13197;SDS011;6664;52.514;13.440;2023-05-10T04:05:38;3.97;;;3.00;;
13197;SDS011;6664;52.514;13.440;2023-05-10T04:08:24;3.33;;;3.00;;
13197;SDS011;6664;52.514;13.440;2023-05-10T04:11:10;3.00;;;2.70;;
13197;SDS011;6664;52.514;13.440;2023-05-10T04:13:57;3.03;;;2.83;;
13197;SDS011;6664;52.514;13.440;2023-05-10T04:16:43;5.33;;;2.57;;
13197;SDS011;6664;52.514;13.440;2023-05-10T04:19:29;3.20;;;2.93;;
13197;SDS011;6664;52.514;13.440;2023-05-10T04:22:15;5.00;;;3.00;;
13197;SDS011;6664;52.514;13.440;2023-05-10T04:25:03;4.77;;;2.90;;
13197;SDS011;6664;52.514;13.440;2023-05-10T04:27:49;3.00;;;2.80;;
13197;SDS011;6664;52.514;13.440;2023-05-10T04:30:35;9.87;;;2.90;;
13197;SDS011;6664;52.514;13.440;2023-05-10T04:33:20;3.20;;;2.87;;
13197;SDS011;6664;52.514;13.440;2023-05-10T04:36:05;12.27;;;2.70;;
13197;SDS011;6664;52.514;13.440;2023-05-10T04:38:54;13.97;;;3.33;;
13197;SDS011;6664;52.514;13.440;2023-05-10T04:41:41;2.70;;;2.50;;
13197;SDS011;6664;52.514;13.440;2023-05-10T04:44:29;8.00;;;3.30;;
13197;SDS011;6664;52.514;13.440;2023-05-10T04:47:15;7.30;;;2.80;;
13197;SDS011;6664;52.514;13.440;2023-05-10T04:50:05;3.80;;;2.80;;
13197;SDS011;6664;52.514;13.440;2023-05-10T04:52:52;4.30;;;2.90;;
13197;SDS011;6664;52.514;13.440;2023-05-10T04:55:37;6.63;;;2.70;;
13197;SDS011;6664;52.514;13.440;2023-05-10T04:58:24;4.80;;;2.20;;
13197;SDS011;6664;52.514;13.440;2023-05-10T05:01:10;3.47;;;3.17;;
13197;SDS011;6664;52.514;13.440;2023-05-10T05:03:56;2.30;;;2.20;;
13197;SDS011;6664;52.514;13.440;2023-05-10T05:06:42;3.53;;;2.90;;
13197;SDS011;6664;52.514;13.440;2023-05-10T05:09:28;4.20;;;2.77;;
13197;SDS011;6664;52.514;13.440;2023-05-10T05:12:13;2.80;;;2.60;;
13197;SDS011;6664;52.514;13.440;2023-05-10T05:14:59;3.23;;;2.40;;
13197;SDS011;6664;52.514;13.440;2023-05-10T05:17:45;7.80;;;2.37;;
13197;SDS011;6664;52.514;13.440;2023-05-10T05:20:34;3.13;;;2.50;;
13197;SDS011;6664;52.514;13.440;2023-05-10T05:23:19;7.10;;;2.57;;
13197;SDS011;6664;52.514;13.440;2023-05-10T05:26:05;3.07;;;2.60;;
13197;SDS011;6664;52.514;13.440;2023-05-10T05:28:53;4.30;;;2.57;;
13197;SDS011;6664;52.514;13.440;2023-05-10T05:31:39;3.43;;;2.60;;
13197;SDS011;6664;52.514;13.440;2023-05-10T05:34:24;2.40;;;2.20;;
13197;SDS011;6664;52.514;13.440;2023-05-10T05:37:17;3.20;;;2.60;;
13197;SDS011;6664;52.514;13.440;2023-05-10T05:40:06;3.13;;;2.60;;
13197;SDS011;6664;52.514;13.440;2023-05-10T05:42:52;2.10;;;2.00;;
13197;SDS011;6664;52.514;13.440;2023-05-10T05:45:37;4.53;;;2.00;;
13197;SDS011;6664;52.514;13.440;2023-05-10T05:48:23;3.60;;;2.00;;
13197;SDS011;6664;52.514;13.440;2023-05-10T05:51:08;2.30;;;2.13;;
13197;SDS011;6664;52.514;13.440;2023-05-10T05:53:56;2.50;;;2.30;;
13197;SDS011;6664;52.514;13.440;2023-05-10T05:56:48;3.13;;;2.23;;
13197;SDS011;6664;52.514;13.440;2023-05-10T05:59:33;2.53;;;2.33;;
13197;SDS011;6664;52.514;13.440;2023-05-10T06:02:20;4.20;;;2.20;;
13197;SDS011;6664;52.514;13.440;2023-05-10T06:05:07;5.60;;;2.27;;
13197;SDS011;6664;52.514;13.440;2023-05-10T06:07:53;2.37;;;2.17;;
13197;SDS011;6664;52.514;13.440;2023-05-10T06:10:39;1.77;;;1.67;;
13197;SDS011;6664;52.514;13.440;2023-05-10T06:13:24;3.00;;;2.00;;
13197;SDS011;6664;52.514;13.440;2023-05-10T06:16:13;1.97;;;1.87;;
13197;SDS011;6664;52.514;13.440;2023-05-10T06:18:59;5.43;;;2.00;;
13197;SDS011;6664;52.514;13.440;2023-05-10T06:21:44;2.03;;;1.87;;
13197;SDS011;6664;52.514;13.440;2023-05-10T06:24:32;2.70;;;2.30;;
13197;SDS011;6664;52.514;13.440;2023-05-10T06:27:17;1.87;;;1.77;;
13197;SDS011;6664;52.514;13.440;2023-05-10T06:30:04;2.10;;;1.67;;
13197;SDS011;6664;52.514;13.440;2023-05-10T06:32:56;7.70;;;2.67;;
13197;SDS011;6664;52.514;13.440;2023-05-10T06:35:42;6.53;;;2.37;;
13197;SDS011;6664;52.514;13.440;2023-05-10T06:38:28;2.37;;;2.17;;
13197;SDS011;6664;52.514;13.440;2023-05-10T06:41:13;5.40;;;2.10;;
13197;SDS011;6664;52.514;13.440;2023-05-10T06:43:58;8.63;;;2.10;;
13197;SDS011;6664;52.514;13.440;2023-05-10T06:46:43;1.90;;;1.80;;
13197;SDS011;6664;52.514;13.440;2023-05-10T06:49:32;4.43;;;1.87;;
13197;SDS011;6664;52.514;13.440;2023-05-10T06:52:19;2.37;;;2.03;;
13197;SDS011;6664;52.514;13.440;2023-05-10T06:55:06;3.90;;;2.17;;
13197;SDS011;6664;52.514;13.440;2023-05-10T06:57:57;7.20;;;2.40;;
13197;SDS011;6664;52.514;13.440;2023-05-10T07:00:43;3.83;;;1.70;;
13197;SDS011;6664;52.514;13.440;2023-05-10T07:03:30;9.70;;;2.20;;
13197;SDS011;6664;52.514;13.440;2023-05-10T07:06:18;2.83;;;2.27;;
13197;SDS011;6664;52.514;13.440;2023-05-10T07:09:18;8.03;;;2.00;;
13197;SDS011;6664;52.514;13.440;2023-05-10T07:12:04;2.70;;;1.90;;
13197;SDS011;6664;52.514;13.440;2023-05-10T07:14:55;2.50;;;2.30;;
13197;SDS011;6664;52.514;13.440;2023-05-10T07:17:43;4.93;;;1.70;;
13197;SDS011;6664;52.514;13.440;2023-05-10T07:20:31;3.70;;;1.70;;
13197;SDS011;6664;52.514;13.440;2023-05-10T07:23:16;1.83;;;1.70;;
13197;SDS011;6664;52.514;13.440;2023-05-10T07:26:05;2.27;;;2.03;;
13197;SDS011;6664;52.514;13.440;2023-05-10T07:28:51;1.63;;;1.53;;
13197;SDS011;6664;52.514;13.440;2023-05-10T07:31:37;2.30;;;1.50;;
13197;SDS011;6664;52.514;13.440;2023-05-10T07:34:22;2.60;;;1.90;;
13197;SDS011;6664;52.514;13.440;2023-05-10T07:37:08;3.83;;;1.77;;
13197;SDS011;6664;52.514;13.440;2023-05-10T07:39:53;2.40;;;1.60;;
13197;SDS011;6664;52.514;13.440;2023-05-10T07:42:39;1.63;;;1.53;;
13197;SDS011;6664;52.514;13.440;2023-05-10T07:45:24;1.90;;;1.80;;
13197;SDS011;6664;52.514;13.440;2023-05-10T07:48:10;2.03;;;1.80;;
13197;SDS011;6664;52.514;13.440;2023-05-10T07:50:57;4.13;;;2.00;;
13197;SDS011;6664;52.514;13.440;2023-05-10T07:53:43;2.40;;;2.00;;
13197;SDS011;6664;52.514;13.440;2023-05-10T07:56:30;3.13;;;2.10;;
13197;SDS011;6664;52.514;13.440;2023-05-10T07:59:17;3.73;;;1.50;;
13197;SDS011;6664;52.514;13.440;2023-05-10T08:02:03;2.07;;;1.87;;
13197;SDS011;6664;52.514;13.440;2023-05-10T08:04:52;1.83;;;1.73;;
13197;SDS011;6664;52.514;13.440;2023-05-10T08:07:38;2.17;;;2.00;;
13197;SDS011;6664;52.514;13.440;2023-05-10T08:10:24;6.20;;;2.10;;
13197;SDS011;6664;52.514;13.440;2023-05-10T08:13:10;4.90;;;1.43;;
13197;SDS011;6664;52.514;13.440;2023-05-10T08:15:58;1.70;;;1.60;;
13197;SDS011;6664;52.514;13.440;2023-05-10T08:18:44;5.43;;;1.60;;
13197;SDS011;6664;52.514;13.440;2023-05-10T08:21:34;1.93;;;1.70;;
13197;SDS011;6664;52.514;13.440;2023-05-10T08:24:20;1.60;;;1.50;;
13197;SDS011;6664;52.514;13.440;2023-05-10T08:27:07;2.57;;;1.53;;
13197;SDS011;6664;52.514;13.440;2023-05-10T08:29:53;2.60;;;2.00;;
13197;SDS011;6664;52.514;13.440;2023-05-10T08:32:38;1.97;;;1.80;;
13197;SDS011;6664;52.514;13.440;2023-05-10T08:35:26;2.77;;;2.23;;
13197;SDS011;6664;52.514;13.440;2023-05-10T08:38:13;2.97;;;1.87;;
13197;SDS011;6664;52.514;13.440;2023-05-10T08:40:59;2.70;;;1.80;;
13197;SDS011;6664;52.514;13.440;2023-05-10T08:43:46;6.47;;;1.53;;
13197;SDS011;6664;52.514;13.440;2023-05-10T08:46:33;2.73;;;1.73;;
13197;SDS011;6664;52.514;13.440;2023-05-10T08:49:21;2.20;;;1.50;;
13197;SDS011;6664;52.514;13.440;2023-05-10T08:52:07;1.90;;;1.67;;
13197;SDS011;6664;52.514;13.440;2023-05-10T08:54:56;3.07;;;1.80;;
13197;SDS011;6664;52.514;13.440;2023-05-10T08:57:42;2.10;;;1.90;;
13197;SDS011;6664;52.514;13.440;2023-05-10T09:00:28;2.93;;;1.40;;
13197;SDS011;6664;52.514;13.440;2023-05-10T09:03:14;2.43;;;2.23;;
13197;SDS011;6664;52.514;13.440;2023-05-10T09:06:03;3.10;;;2.00;;
13197;SDS011;6664;52.514;13.440;2023-05-10T09:08:49;1.93;;;1.83;;
13197;SDS011;6664;52.514;13.440;2023-05-10T09:11:35;4.43;;;2.17;;
13197;SDS011;6664;52.514;13.440;2023-05-10T09:14:22;3.53;;;2.00;;
13197;SDS011;6664;52.514;13.440;2023-05-10T09:17:09;2.40;;;1.87;;
13197;SDS011;6664;52.514;13.440;2023-05-10T09:19:58;3.53;;;2.00;;
13197;SDS011;6664;52.514;13.440;2023-05-10T09:22:44;9.20;;;1.97;;
13197;SDS011;6664;52.514;13.440;2023-05-10T09:25:30;6.10;;;2.03;;
13197;SDS011;6664;52.514;13.440;2023-05-10T09:28:17;3.30;;;1.80;;
13197;SDS011;6664;52.514;13.440;2023-05-10T09:31:03;2.00;;;1.90;;
13197;SDS011;6664;52.514;13.440;2023-05-10T09:33:49;3.07;;;2.10;;
13197;SDS011;6664;52.514;13.440;2023-05-10T09:36:36;2.50;;;1.70;;
13197;SDS011;6664;52.514;13.440;2023-05-10T09:39:35;3.43;;;2.00;;
13197;SDS011;6664;52.514;13.440;2023-05-10T09:42:21;1.83;;;1.73;;
13197;SDS011;6664;52.514;13.440;2023-05-10T09:45:12;11.13;;;2.10;;
13197;SDS011;6664;52.514;13.440;2023-05-10T09:47:59;1.83;;;1.73;;
13197;SDS011;6664;52.514;13.440;2023-05-10T09:50:47;8.03;;;1.80;;
13197;SDS011;6664;52.514;13.440;2023-05-10T09:53:46;5.20;;;1.50;;
13197;SDS011;6664;52.514;13.440;2023-05-10T09:56:35;1.83;;;1.73;;
13197;SDS011;6664;52.514;13.440;2023-05-10T09:59:27;2.00;;;1.40;;
13197;SDS011;6664;52.514;13.440;2023-05-10T10:02:15;9.67;;;2.07;;
13197;SDS011;6664;52.514;13.440;2023-05-10T10:05:01;2.00;;;1.90;;
13197;SDS011;6664;52.514;13.440;2023-05-10T10:07:48;8.00;;;1.93;;
13197;SDS011;6664;52.514;13.440;2023-05-10T10:10:35;1.70;;;1.57;;
13197;SDS011;6664;52.514;13.440;2023-05-10T10:13:21;2.90;;;1.70;;
13197;SDS011;6664;52.514;13.440;2023-05-10T10:16:07;2.60;;;2.20;;
13197;SDS011;6664;52.514;13.440;2023-05-10T10:18:58;4.10;;;1.90;;
13197;SDS011;6664;52.514;13.440;2023-05-10T10:21:46;1.83;;;1.70;;
13197;SDS011;6664;52.514;13.440;2023-05-10T10:24:35;2.53;;;1.90;;
13197;SDS011;6664;52.514;13.440;2023-05-10T10:27:24;5.17;;;1.80;;
13197;SDS011;6664;52.514;13.440;2023-05-10T10:36:47;2.20;;;2.00;;
13197;SDS011;6664;52.514;13.440;2023-05-10T10:39:33;2.93;;;2.03;;
13197;SDS011;6664;52.514;13.440;2023-05-10T10:45:41;2.30;;;1.73;;
13197;SDS011;6664;52.514;13.440;2023-05-10T10:48:27;1.77;;;1.53;;
13197;SDS011;6664;52.514;13.440;2023-05-10T10:51:15;3.97;;;1.87;;
13197;SDS011;6664;52.514;13.440;2023-05-10T10:54:08;2.00;;;1.90;;
13197;SDS011;6664;52.514;13.440;2023-05-10T10:57:13;3.67;;;2.00;;
13197;SDS011;6664;52.514;13.440;2023-05-10T11:03:05;1.97;;;1.37;;
13197;SDS011;6664;52.514;13.440;2023-05-10T11:05:55;9.60;;;2.23;;
13197;SDS011;6664;52.514;13.440;2023-05-10T11:08:43;2.03;;;1.90;;
13197;SDS011;6664;52.514;13.440;2023-05-10T11:11:32;1.73;;;1.63;;
13197;SDS011;6664;52.514;13.440;2023-05-10T11:14:20;1.80;;;1.70;;
13197;SDS011;6664;52.514;13.440;2023-05-10T11:17:24;2.40;;;1.70;;
13197;SDS011;6664;52.514;13.440;2023-05-10T11:20:13;1.70;;;1.60;;
13197;SDS011;6664;52.514;13.440;2023-05-10T11:23:14;7.20;;;1.73;;
13197;SDS011;6664;52.514;13.440;2023-05-10T11:26:00;2.03;;;1.80;;
13197;SDS011;6664;52.514;13.440;2023-05-10T11:28:47;2.83;;;1.90;;
13197;SDS011;6664;52.514;13.440;2023-05-10T11:31:33;6.00;;;2.10;;
13197;SDS011;6664;52.514;13.440;2023-05-10T11:34:23;1.87;;;1.77;;
13197;SDS011;6664;52.514;13.440;2023-05-10T11:37:17;3.47;;;1.70;;
13197;SDS011;6664;52.514;13.440;2023-05-10T11:40:03;4.40;;;1.70;;
13197;SDS011;6664;52.514;13.440;2023-05-10T11:42:49;1.30;;;1.20;;
13197;SDS011;6664;52.514;13.440;2023-05-10T11:45:39;6.63;;;2.00;;
13197;SDS011;6664;52.514;13.440;2023-05-10T11:48:26;1.40;;;1.30;;
13197;SDS011;6664;52.514;13.440;2023-05-10T11:51:11;2.30;;;2.10;;
13197;SDS011;6664;52.514;13.440;2023-05-10T11:53:57;2.53;;;1.60;;
13197;SDS011;6664;52.514;13.440;2023-05-10T11:56:43;3.87;;;2.10;;
13197;SDS011;6664;52.514;13.440;2023-05-10T11:59:30;1.93;;;1.70;;
13197;SDS011;6664;52.514;13.440;2023-05-10T12:02:15;2.10;;;1.63;;
13197;SDS011;6664;52.514;13.440;2023-05-10T12:05:04;4.10;;;1.53;;
13197;SDS011;6664;52.514;13.440;2023-05-10T12:08:10;1.67;;;1.30;;
13197;SDS011;6664;52.514;13.440;2023-05-10T12:11:08;6.40;;;1.90;;
13197;SDS011;6664;52.514;13.440;2023-05-10T12:13:57;1.63;;;1.53;;
13197;SDS011;6664;52.514;13.440;2023-05-10T12:16:49;4.37;;;2.23;;
13197;SDS011;6664;52.514;13.440;2023-05-10T12:19:37;12.13;;;2.57;;
13197;SDS011;6664;52.514;13.440;2023-05-10T12:22:26;3.00;;;1.80;;
13197;SDS011;6664;52.514;13.440;2023-05-10T12:25:12;2.20;;;1.47;;
13197;SDS011;6664;52.514;13.440;2023-05-10T12:27:58;3.17;;;1.70;;
13197;SDS011;6664;52.514;13.440;2023-05-10T12:30:48;1.90;;;1.33;;
13197;SDS011;6664;52.514;13.440;2023-05-10T12:36:26;3.00;;;2.03;;
13197;SDS011;6664;52.514;13.440;2023-05-10T12:39:12;4.00;;;1.50;;
13197;SDS011;6664;52.514;13.440;2023-05-10T12:41:57;5.70;;;1.47;;
13197;SDS011;6664;52.514;13.440;2023-05-10T12:44:42;4.43;;;1.50;;
13197;SDS011;6664;52.514;13.440;2023-05-10T12:47:29;1.77;;;1.67;;
13197;SDS011;6664;52.514;13.440;2023-05-10T12:50:18;2.25;;;1.05;;
13197;SDS011;6664;52.514;13.440;2023-05-10T12:53:04;1.17;;;1.08;;
13197;SDS011;6664;52.514;13.440;2023-05-10T12:55:49;2.22;;;1.20;;
13197;SDS011;6664;52.514;13.440;2023-05-10T12:58:35;1.38;;;1.20;;
13197;SDS011;6664;52.514;13.440;2023-05-10T13:01:23;4.68;;;0.80;;
13197;SDS011;6664;52.514;13.440;2023-05-10T13:04:09;1.08;;;1.08;;
13197;SDS011;6664;52.514;13.440;2023-05-10T13:06:54;1.10;;;1.00;;
13197;SDS011;6664;52.514;13.440;2023-05-10T13:09:44;1.13;;;1.08;;
13197;SDS011;6664;52.514;13.440;2023-05-10T13:12:32;0.75;;;0.75;;
13197;SDS011;6664;52.514;13.440;2023-05-10T13:15:17;0.80;;;0.80;;
13197;SDS011;6664;52.514;13.440;2023-05-10T13:18:05;1.00;;;1.00;;
13197;SDS011;6664;52.514;13.440;2023-05-10T13:20:51;10.95;;;1.25;;
13197;SDS011;6664;52.514;13.440;2023-05-10T13:23:38;1.65;;;0.93;;
13197;SDS011;6664;52.514;13.440;2023-05-10T13:26:24;0.88;;;0.80;;
13197;SDS011;6664;52.514;13.440;2023-05-10T13:29:10;0.90;;;0.90;;
13197;SDS011;6664;52.514;13.440;2023-05-10T13:31:55;1.27;;;0.80;;
13197;SDS011;6664;52.514;13.440;2023-05-10T13:34:46;3.83;;;1.10;;
13197;SDS011;6664;52.514;13.440;2023-05-10T13:37:31;1.10;;;1.10;;
13197;SDS011;6664;52.514;13.440;2023-05-10T13:40:22;0.70;;;0.70;;
13197;SDS011;6664;52.514;13.440;2023-05-10T13:43:07;0.85;;;0.85;;
13197;SDS011;6664;52.514;13.440;2023-05-10T13:45:52;0.98;;;0.98;;
13197;SDS011;6664;52.514;13.440;2023-05-10T13:48:38;1.10;;;0.90;;
13197;SDS011;6664;52.514;13.440;2023-05-10T13:51:24;0.73;;;0.73;;
13197;SDS011;6664;52.514;13.440;2023-05-10T13:54:09;0.70;;;0.70;;
13197;SDS011;6664;52.514;13.440;2023-05-10T13:56:57;3.30;;;0.80;;
13197;SDS011;6664;52.514;13.440;2023-05-10T13:59:43;0.90;;;0.90;;
13197;SDS011;6664;52.514;13.440;2023-05-10T14:02:29;0.95;;;0.95;;
13197;SDS011;6664;52.514;13.440;2023-05-10T14:05:15;0.80;;;0.80;;
13197;SDS011;6664;52.514;13.440;2023-05-10T14:08:03;1.63;;;1.05;;
13197;SDS011;6664;52.514;13.440;2023-05-10T14:10:49;2.70;;;0.90;;
13197;SDS011;6664;52.514;13.440;2023-05-10T14:13:35;0.82;;;0.82;;
13197;SDS011;6664;52.514;13.440;2023-05-10T14:16:21;0.93;;;0.90;;
13197;SDS011;6664;52.514;13.440;2023-05-10T14:19:07;0.77;;;0.77;;
13197;SDS011;6664;52.514;13.440;2023-05-10T14:21:53;0.80;;;0.80;;
13197;SDS011;6664;52.514;13.440;2023-05-10T14:24:40;0.88;;;0.88;;
13197;SDS011;6664;52.514;13.440;2023-05-10T14:27:26;0.90;;;0.90;;
13197;SDS011;6664;52.514;13.440;2023-05-10T14:30:12;1.13;;;0.90;;
13197;SDS011;6664;52.514;13.440;2023-05-10T14:32:57;0.90;;;0.90;;
13197;SDS011;6664;52.514;13.440;2023-05-10T14:35:44;0.80;;;0.80;;
13197;SDS011;6664;52.514;13.440;2023-05-10T14:38:30;0.90;;;0.90;;
13197;SDS011;6664;52.514;13.440;2023-05-10T14:41:16;11.25;;;1.23;;
13197;SDS011;6664;52.514;13.440;2023-05-10T14:44:02;2.97;;;1.38;;
13197;SDS011;6664;52.514;13.440;2023-05-10T14:46:50;1.48;;;1.05;;
13197;SDS011;6664;52.514;13.440;2023-05-10T14:49:36;0.95;;;0.95;;
13197;SDS011;6664;52.514;13.440;2023-05-10T14:52:22;1.52;;;1.40;;
13197;SDS011;6664;52.514;13.440;2023-05-10T14:55:07;2.08;;;1.40;;
13197;SDS011;6664;52.514;13.440;2023-05-10T14:57:53;2.17;;;1.40;;
13197;SDS011;6664;52.514;13.440;2023-05-10T15:00:41;1.50;;;1.27;;
13197;SDS011;6664;52.514;13.440;2023-05-10T15:03:31;1.17;;;1.17;;
13197;SDS011;6664;52.514;13.440;2023-05-10T15:06:22;1.30;;;1.20;;
13197;SDS011;6664;52.514;13.440;2023-05-10T15:09:11;1.52;;;1.42;;
13197;SDS011;6664;52.514;13.440;2023-05-10T15:11:57;1.73;;;1.53;;
13197;SDS011;6664;52.514;13.440;2023-05-10T15:14:42;6.17;;;1.57;;
13197;SDS011;6664;52.514;13.440;2023-05-10T15:17:28;2.50;;;1.50;;
13197;SDS011;6664;52.514;13.440;2023-05-10T15:20:16;1.30;;;1.20;;
13197;SDS011;6664;52.514;13.440;2023-05-10T15:23:01;1.40;;;1.40;;
13197;SDS011;6664;52.514;13.440;2023-05-10T15:25:47;1.93;;;1.80;;
13197;SDS011;6664;52.514;13.440;2023-05-10T15:28:34;1.47;;;1.37;;
13197;SDS011;6664;52.514;13.440;2023-05-10T15:31:19;2.10;;;1.60;;
13197;SDS011;6664;52.514;13.440;2023-05-10T15:34:08;1.50;;;1.40;;
13197;SDS011;6664;52.514;13.440;2023-05-10T15:36:56;1.80;;;1.57;;
13197;SDS011;6664;52.514;13.440;2023-05-10T15:39:42;2.33;;;2.00;;
13197;SDS011;6664;52.514;13.440;2023-05-10T15:42:27;1.77;;;1.67;;
13197;SDS011;6664;52.514;13.440;2023-05-10T15:45:12;1.67;;;1.40;;
13197;SDS011;6664;52.514;13.440;2023-05-10T15:47:59;2.97;;;1.60;;
13197;SDS011;6664;52.514;13.440;2023-05-10T15:50:44;1.83;;;1.70;;
13197;SDS011;6664;52.514;13.440;2023-05-10T15:53:30;2.53;;;1.80;;
13197;SDS011;6664;52.514;13.440;2023-05-10T15:56:21;1.83;;;1.73;;
13197;SDS011;6664;52.514;13.440;2023-05-10T15:59:06;1.77;;;1.67;;
13197;SDS011;6664;52.514;13.440;2023-05-10T16:01:55;2.53;;;2.07;;
13197;SDS011;6664;52.514;13.440;2023-05-10T16:04:41;1.77;;;1.57;;
13197;SDS011;6664;52.514;13.440;2023-05-10T16:07:28;4.87;;;2.47;;
13197;SDS011;6664;52.514;13.440;2023-05-10T16:10:18;5.20;;;3.20;;
13197;SDS011;6664;52.514;13.440;2023-05-10T16:13:03;1.70;;;1.60;;
13197;SDS011;6664;52.514;13.440;2023-05-10T16:15:49;1.93;;;1.80;;
13197;SDS011;6664;52.514;13.440;2023-05-10T16:18:34;3.40;;;1.87;;
13197;SDS011;6664;52.514;13.440;2023-05-10T16:21:20;8.97;;;1.67;;
13197;SDS011;6664;52.514;13.440;2023-05-10T16:24:08;1.67;;;1.57;;
13197;SDS011;6664;52.514;13.440;2023-05-10T16:26:56;1.93;;;1.83;;
13197;SDS011;6664;52.514;13.440;2023-05-10T16:29:45;5.83;;;2.17;;
13197;SDS011;6664;52.514;13.440;2023-05-10T16:32:31;1.60;;;1.50;;
13197;SDS011;6664;52.514;13.440;2023-05-10T16:35:17;2.40;;;1.83;;
13197;SDS011;6664;52.514;13.440;2023-05-10T16:38:02;7.47;;;2.50;;
13197;SDS011;6664;52.514;13.440;2023-05-10T16:40:48;3.33;;;2.40;;
13197;SDS011;6664;52.514;13.440;2023-05-10T16:43:33;3.00;;;2.80;;
13197;SDS011;6664;52.514;13.440;2023-05-10T16:46:19;1.90;;;1.80;;
13197;SDS011;6664;52.514;13.440;2023-05-10T16:49:05;5.90;;;2.20;;
13197;SDS011;6664;52.514;13.440;2023-05-10T16:51:53;2.73;;;2.47;;
13197;SDS011;6664;52.514;13.440;2023-05-10T16:54:39;4.47;;;3.30;;
13197;SDS011;6664;52.514;13.440;2023-05-10T16:57:26;2.80;;;2.43;;
13197;SDS011;6664;52.514;13.440;2023-05-10T17:00:14;2.93;;;2.37;;
13197;SDS011;6664;52.514;13.440;2023-05-10T17:03:00;3.27;;;2.97;;
13197;SDS011;6664;52.514;13.440;2023-05-10T17:05:49;5.57;;;3.00;;
13197;SDS011;6664;52.514;13.440;2023-05-10T17:08:35;3.30;;;3.00;;
13197;SDS011;6664;52.514;13.440;2023-05-10T17:11:22;4.10;;;3.60;;
13197;SDS011;6664;52.514;13.440;2023-05-10T17:14:08;6.90;;;3.30;;
13197;SDS011;6664;52.514;13.440;2023-05-10T17:16:54;3.30;;;2.97;;
13197;SDS011;6664;52.514;13.440;2023-05-10T17:19:40;3.77;;;3.17;;
13197;SDS011;6664;52.514;13.440;2023-05-10T17:22:28;3.43;;;3.13;;
13197;SDS011;6664;52.514;13.440;2023-05-10T17:25:14;7.47;;;3.47;;